Time;durP1;ratioP1;P1;durP2;ratioP2;P2;SDS_P1;SDS_P2;PMS_P1;PMS_P2;Temp;Humidity;BMP_temperature;BMP_pressure;BME280_temperature;BME280_humidity;BME280_pressure;Samples;Min_cycle;Max_cycle;Signal;HPM_P1;HPM_P2
2022/11/17 00:01:39;;;;;;;;;;;11.20;99.90;;;;;;5053466;28;19990;-80
2022/11/17 00:04:05;;;;;;;;;;;11.20;99.90;;;;;;5089110;22;19932;-83
2022/11/17 00:06:30;;;;;;;;;;;11.20;99.90;;;;;;5032616;28;20359;-84
2022/11/17 00:08:55;;;;;;;;;;;11.20;99.90;;;;;;5033295;28;19909;-83
2022/11/17 00:11:21;;;;;;;;;;;11.20;99.90;;;;;;5033147;28;19909;-82
2022/11/17 00:16:30;;;;;;;;;;;11.20;99.90;;;;;;5038521;28;20000;-84
2022/11/17 00:21:40;;;;;;;;;;;11.20;99.90;;;;;;5040041;28;19915;-84
2022/11/17 00:24:06;;;;;;;;;;;11.20;99.90;;;;;;5039894;28;19917;-84
2022/11/17 00:26:32;;;;;;;;;;;11.30;99.90;;;;;;5042792;28;19952;-84
2022/11/17 00:28:59;;;;;;;;;;;11.30;99.90;;;;;;5037327;28;19909;-83
2022/11/17 00:34:21;;;;;;;;;;;11.40;99.90;;;;;;5018559;28;20313;-83
2022/11/17 00:36:51;;;;;;;;;;;11.40;99.90;;;;;;5036775;28;19909;-82
2022/11/17 00:39:18;;;;;;;;;;;11.40;99.90;;;;;;5036593;28;19959;-82
2022/11/17 00:41:44;;;;;;;;;;;11.40;99.90;;;;;;5036421;28;19910;-83
2022/11/17 00:44:09;;;;;;;;;;;11.30;99.90;;;;;;5052186;28;20252;-83
2022/11/17 00:46:36;;;;;;;;;;;11.20;99.90;;;;;;5039680;28;19909;-84
2022/11/17 00:49:02;;;;;;;;;;;11.20;99.90;;;;;;5037218;28;19940;-84
2022/11/17 00:51:27;;;;;;;;;;;11.10;99.90;;;;;;5036048;28;20366;-84
2022/11/17 00:53:53;;;;;;;;;;;11.10;99.90;;;;;;5035154;28;19909;-84
2022/11/17 00:56:18;;;;;;;;;;;11.10;99.90;;;;;;5035727;28;19909;-85
2022/11/17 00:58:44;;;;;;;;;;;11.10;99.90;;;;;;5035974;28;19932;-86
2022/11/17 01:01:10;;;;;;;;;;;11.10;99.90;;;;;;5052741;28;19909;-86
2022/11/17 01:03:35;;;;;;;;;;;11.10;99.90;;;;;;5035111;28;19920;-86
2022/11/17 01:06:05;;;;;;;;;;;11.10;99.90;;;;;;5034709;28;19917;-84
2022/11/17 01:08:31;;;;;;;;;;;11.10;99.90;;;;;;5051501;28;19910;-86
2022/11/17 01:11:02;;;;;;;;;;;11.10;99.90;;;;;;5035072;28;20271;-84
2022/11/17 01:13:28;;;;;;;;;;;11.00;99.90;;;;;;5036583;28;19909;-86
2022/11/17 01:15:53;;;;;;;;;;;11.00;99.90;;;;;;5035683;28;20012;-85
2022/11/17 01:18:19;;;;;;;;;;;11.00;99.90;;;;;;5036546;28;19916;-87
2022/11/17 01:20:44;;;;;;;;;;;11.00;99.90;;;;;;5034693;28;19962;-85
2022/11/17 01:23:10;;;;;;;;;;;11.00;99.90;;;;;;5035235;28;19920;-85
2022/11/17 01:25:37;;;;;;;;;;;11.10;99.90;;;;;;5034729;28;20328;-85
2022/11/17 01:28:02;;;;;;;;;;;11.00;99.90;;;;;;5035125;28;19910;-84
2022/11/17 01:30:27;;;;;;;;;;;11.00;99.90;;;;;;5050984;28;19909;-84
2022/11/17 01:32:53;;;;;;;;;;;11.00;99.90;;;;;;5035593;28;20298;-86
2022/11/17 01:35:18;;;;;;;;;;;11.00;99.90;;;;;;5034702;28;19959;-85
2022/11/17 01:37:44;;;;;;;;;;;11.00;99.90;;;;;;5051372;28;19910;-85
2022/11/17 01:40:11;;;;;;;;;;;11.00;99.90;;;;;;5035402;28;20420;-85
2022/11/17 01:42:37;;;;;;;;;;;11.00;99.90;;;;;;5035284;28;19920;-86
2022/11/17 01:45:02;;;;;;;;;;;11.00;99.90;;;;;;5035193;28;19909;-85
2022/11/17 01:47:33;;;;;;;;;;;11.00;99.90;;;;;;5051692;28;19909;-84
2022/11/17 01:50:17;;;;;;;;;;;11.10;99.90;;;;;;5034257;28;19910;-84
2022/11/17 01:52:43;;;;;;;;;;;11.00;99.90;;;;;;5035916;28;20429;-85
2022/11/17 01:55:09;;;;;;;;;;;11.10;99.90;;;;;;5034836;28;19909;-84
2022/11/17 01:57:38;;;;;;;;;;;11.10;99.90;;;;;;5036922;28;19959;-85
2022/11/17 02:00:05;;;;;;;;;;;11.10;99.90;;;;;;5035368;28;19909;-84
2022/11/17 02:02:30;;;;;;;;;;;11.10;99.90;;;;;;5034568;28;19964;-84
2022/11/17 02:05:05;;;;;;;;;;;11.20;99.90;;;;;;5033898;28;20402;-85
2022/11/17 02:07:33;;;;;;;;;;;11.20;99.90;;;;;;5051230;28;19916;-84
2022/11/17 02:09:59;;;;;;;;;;;11.20;99.90;;;;;;5034010;28;19949;-83
2022/11/17 02:12:26;;;;;;;;;;;11.20;99.90;;;;;;5034227;28;20251;-84
2022/11/17 02:14:52;;;;;;;;;;;11.20;99.90;;;;;;5033665;28;19979;-83
2022/11/17 02:17:18;;;;;;;;;;;11.20;99.90;;;;;;5033749;28;19913;-83
2022/11/17 02:19:48;;;;;;;;;;;11.20;99.90;;;;;;5050648;28;19909;-84
2022/11/17 02:22:19;;;;;;;;;;;11.20;99.90;;;;;;5051394;28;19909;-85
2022/11/17 02:25:05;;;;;;;;;;;11.20;99.90;;;;;;5050770;28;20004;-84
2022/11/17 02:27:33;;;;;;;;;;;11.20;99.90;;;;;;5033921;28;20004;-85
2022/11/17 02:30:02;;;;;;;;;;;11.20;99.90;;;;;;5036490;28;19909;-85
2022/11/17 02:32:33;;;;;;;;;;;11.30;99.90;;;;;;5052041;28;19914;-83
2022/11/17 02:35:13;;;;;;;;;;;11.30;99.90;;;;;;5050175;28;20371;-85
2022/11/17 02:37:41;;;;;;;;;;;11.30;99.90;;;;;;5035162;28;19963;-85
2022/11/17 02:40:13;;;;;;;;;;;11.30;99.90;;;;;;5050138;28;19913;-84
2022/11/17 02:45:26;;;;;;;;;;;11.20;99.90;;;;;;5035914;28;20380;-84
2022/11/17 02:47:53;;;;;;;;;;;11.30;99.90;;;;;;5034013;28;19909;-84
2022/11/17 02:50:19;;;;;;;;;;;11.20;99.90;;;;;;5051282;28;20551;-85
2022/11/17 02:52:45;;;;;;;;;;;11.20;99.90;;;;;;5035055;28;19909;-88
2022/11/17 02:55:10;;;;;;;;;;;11.20;99.90;;;;;;5051138;28;19916;-85
2022/11/17 02:57:37;;;;;;;;;;;11.20;99.90;;;;;;5035587;28;19956;-84
2022/11/17 03:00:04;;;;;;;;;;;11.20;99.90;;;;;;5034347;28;19916;-84
2022/11/17 03:02:48;;;;;;;;;;;11.20;99.90;;;;;;5033997;28;19916;-84
2022/11/17 03:05:18;;;;;;;;;;;11.20;99.90;;;;;;5049719;28;19916;-84
2022/11/17 03:07:43;;;;;;;;;;;11.20;99.90;;;;;;5051010;28;19909;-84
2022/11/17 03:10:12;;;;;;;;;;;11.20;99.90;;;;;;5050810;28;19916;-83
2022/11/17 03:12:53;;;;;;;;;;;11.20;99.90;;;;;;5032650;28;19909;-82
2022/11/17 03:15:26;;;;;;;;;;;11.30;99.90;;;;;;5033241;28;19916;-84
2022/11/17 03:17:57;;;;;;;;;;;11.30;99.90;;;;;;5035677;28;19959;-84
2022/11/17 03:20:45;;;;;;;;;;;11.30;99.90;;;;;;5034241;28;19956;-85
2022/11/17 03:23:18;;;;;;;;;;;11.30;99.90;;;;;;5035317;28;20282;-83
2022/11/17 03:25:46;;;;;;;;;;;11.30;99.90;;;;;;5032719;28;19960;-83
2022/11/17 03:28:13;;;;;;;;;;;11.30;99.90;;;;;;5032676;28;19916;-83
2022/11/17 03:30:40;;;;;;;;;;;11.30;99.90;;;;;;5032968;28;19913;-84
2022/11/17 03:33:09;;;;;;;;;;;11.30;99.90;;;;;;5032400;28;19955;-83
2022/11/17 03:35:36;;;;;;;;;;;11.30;99.90;;;;;;5049678;28;19909;-83
2022/11/17 03:38:06;;;;;;;;;;;11.30;99.90;;;;;;5033015;28;20355;-82
2022/11/17 03:40:33;;;;;;;;;;;11.20;99.90;;;;;;5049857;28;19952;-84
2022/11/17 03:43:01;;;;;;;;;;;11.20;99.90;;;;;;5049015;28;19913;-83
2022/11/17 03:45:27;;;;;;;;;;;11.20;99.90;;;;;;5033940;28;19909;-84
2022/11/17 03:47:59;;;;;;;;;;;11.20;99.90;;;;;;5032907;28;20003;-84
2022/11/17 03:50:28;;;;;;;;;;;11.20;99.90;;;;;;5033211;28;19963;-84
2022/11/17 03:52:54;;;;;;;;;;;11.10;99.90;;;;;;5032489;28;20282;-84
2022/11/17 03:55:25;;;;;;;;;;;11.10;99.90;;;;;;5033012;28;19916;-83
2022/11/17 03:57:55;;;;;;;;;;;11.10;99.90;;;;;;5033868;28;19918;-84
2022/11/17 04:00:21;;;;;;;;;;;11.10;99.90;;;;;;5032221;28;20290;-84
2022/11/17 04:02:48;;;;;;;;;;;11.00;99.90;;;;;;5031790;28;19914;-85
2022/11/17 04:05:15;;;;;;;;;;;11.00;99.90;;;;;;5031552;28;20035;-83
2022/11/17 04:07:41;;;;;;;;;;;11.00;99.90;;;;;;5048759;28;19932;-84
2022/11/17 04:10:08;;;;;;;;;;;10.90;99.90;;;;;;5048815;28;19949;-82
2022/11/17 04:18:02;;;;;;;;;;;10.90;99.90;;;;;;5033449;28;19916;-84
2022/11/17 04:20:34;;;;;;;;;;;10.90;99.90;;;;;;5032085;28;19916;-83
2022/11/17 04:23:10;;;;;;;;;;;10.90;99.90;;;;;;5033395;28;19921;-82
2022/11/17 04:28:36;;;;;;;;;;;10.90;99.90;;;;;;5033105;28;20309;-83
2022/11/17 04:31:05;;;;;;;;;;;10.90;99.90;;;;;;5032904;28;20379;-83
2022/11/17 04:33:31;;;;;;;;;;;10.80;99.90;;;;;;5033039;28;19992;-83
2022/11/17 04:35:56;;;;;;;;;;;10.80;99.90;;;;;;5031842;28;20409;-84
2022/11/17 04:38:22;;;;;;;;;;;10.80;99.90;;;;;;5031532;28;20290;-82
2022/11/17 04:43:31;;;;;;;;;;;10.90;99.90;;;;;;5033153;28;20397;-83
2022/11/17 04:45:58;;;;;;;;;;;10.90;99.90;;;;;;5032175;28;20003;-83
2022/11/17 04:48:25;;;;;;;;;;;11.00;99.90;;;;;;5031992;28;19955;-84
2022/11/17 04:50:54;;;;;;;;;;;11.10;99.90;;;;;;5031910;28;19909;-84
2022/11/17 04:53:20;;;;;;;;;;;11.20;99.90;;;;;;5031959;28;20421;-83
2022/11/17 04:55:45;;;;;;;;;;;11.20;99.90;;;;;;5032076;28;19910;-83
2022/11/17 04:58:11;;;;;;;;;;;11.30;99.90;;;;;;5032695;28;19913;-83
2022/11/17 05:00:36;;;;;;;;;;;11.30;99.90;;;;;;5034212;28;19913;-83
2022/11/17 05:03:02;;;;;;;;;;;11.40;99.90;;;;;;5034992;28;19913;-82
2022/11/17 05:05:27;;;;;;;;;;;11.40;99.90;;;;;;5034916;28;19917;-82
2022/11/17 05:07:52;;;;;;;;;;;11.50;99.90;;;;;;5034883;28;19910;-81
2022/11/17 05:13:20;;;;;;;;;;;11.50;99.90;;;;;;5034886;28;19917;-82
2022/11/17 05:13:23;;;;;;;;;;;11.60;99.90;;;;;;5035754;28;19909;-83
2022/11/17 05:18:37;;;;;;;;;;;11.50;99.90;;;;;;5035950;28;19967;-82
2022/11/17 05:21:04;;;;;;;;;;;11.50;99.90;;;;;;5034663;28;20004;-82
2022/11/17 05:26:13;;;;;;;;;;;11.40;99.90;;;;;;5036155;28;19998;-83
2022/11/17 05:28:39;;;;;;;;;;;11.40;99.90;;;;;;5036329;28;19909;-84
2022/11/17 05:31:04;;;;;;;;;;;11.40;99.90;;;;;;5034705;28;19910;-83
2022/11/17 05:33:30;;;;;;;;;;;11.30;99.90;;;;;;5034524;28;20008;-84
2022/11/17 05:35:55;;;;;;;;;;;11.30;99.90;;;;;;5034880;28;19909;-84
2022/11/17 05:38:21;;;;;;;;;;;11.20;99.90;;;;;;5036292;28;20027;-84
2022/11/17 05:40:46;;;;;;;;;;;11.20;99.90;;;;;;5036526;28;19935;-85
2022/11/17 05:43:12;;;;;;;;;;;11.20;99.90;;;;;;5035658;28;20015;-83
2022/11/17 05:45:37;;;;;;;;;;;11.20;99.90;;;;;;5034442;28;19979;-84
2022/11/17 05:48:03;;;;;;;;;;;11.20;99.90;;;;;;5034349;28;19944;-83
2022/11/17 05:50:28;;;;;;;;;;;11.20;99.90;;;;;;5035499;28;20386;-85
2022/11/17 05:52:54;;;;;;;;;;;11.20;99.90;;;;;;5034920;28;20358;-85
2022/11/17 05:55:19;;;;;;;;;;;11.20;99.90;;;;;;5036321;28;19936;-84
2022/11/17 05:57:45;;;;;;;;;;;11.20;99.90;;;;;;5033860;28;19944;-84
2022/11/17 06:00:11;;;;;;;;;;;11.20;99.90;;;;;;5033977;28;19924;-85
2022/11/17 06:02:38;;;;;;;;;;;11.20;99.90;;;;;;5033495;28;19913;-85
2022/11/17 06:05:04;;;;;;;;;;;11.20;99.90;;;;;;5046915;22;20544;-84
2022/11/17 06:07:30;;;;;;;;;;;11.20;99.90;;;;;;5033590;28;19979;-85
2022/11/17 06:09:55;;;;;;;;;;;11.20;99.90;;;;;;5033606;28;19909;-85
2022/11/17 06:12:21;;;;;;;;;;;11.30;99.90;;;;;;5032703;28;19952;-85
2022/11/17 06:14:46;;;;;;;;;;;11.30;99.90;;;;;;5033689;28;19917;-85
2022/11/17 06:17:16;;;;;;;;;;;11.30;99.90;;;;;;5033590;28;19956;-85
2022/11/17 06:19:44;;;;;;;;;;;11.30;99.90;;;;;;5033545;28;19939;-85
2022/11/17 06:22:09;;;;;;;;;;;11.20;99.90;;;;;;5033533;28;20453;-85
2022/11/17 06:24:35;;;;;;;;;;;11.20;99.90;;;;;;5033013;28;20032;-85
2022/11/17 06:27:01;;;;;;;;;;;11.20;99.90;;;;;;5033942;28;19917;-87
2022/11/17 06:29:27;;;;;;;;;;;11.20;99.90;;;;;;5034162;28;19909;-85
2022/11/17 06:31:55;;;;;;;;;;;11.20;99.90;;;;;;5033732;28;19988;-84
2022/11/17 06:34:20;;;;;;;;;;;11.20;99.90;;;;;;5032989;28;19913;-84
2022/11/17 06:36:45;;;;;;;;;;;11.20;99.90;;;;;;5033809;28;20326;-86
2022/11/17 06:39:11;;;;;;;;;;;11.20;99.90;;;;;;5035055;28;20008;-84
2022/11/17 06:41:38;;;;;;;;;;;11.20;99.90;;;;;;5034394;28;19909;-84
2022/11/17 06:44:04;;;;;;;;;;;11.20;99.90;;;;;;5032609;28;19913;-84
2022/11/17 06:46:36;;;;;;;;;;;11.20;99.90;;;;;;5033002;28;19909;-84
2022/11/17 06:49:05;;;;;;;;;;;11.30;99.90;;;;;;5033550;28;19955;-85
2022/11/17 06:51:31;;;;;;;;;;;11.30;99.90;;;;;;5033638;28;19972;-85
2022/11/17 06:53:57;;;;;;;;;;;11.30;99.90;;;;;;5032350;28;19923;-84
2022/11/17 06:56:22;;;;;;;;;;;11.40;99.90;;;;;;5034148;28;20286;-86
2022/11/17 06:58:48;;;;;;;;;;;11.40;99.90;;;;;;5033570;28;20005;-86
2022/11/17 07:01:14;;;;;;;;;;;11.40;99.90;;;;;;5034383;28;19953;-85
2022/11/17 07:03:40;;;;;;;;;;;11.40;99.90;;;;;;5032774;28;19971;-84
2022/11/17 07:06:06;;;;;;;;;;;11.40;99.90;;;;;;5032308;28;19928;-84
2022/11/17 07:08:32;;;;;;;;;;;11.40;99.90;;;;;;5032449;28;19982;-85
2022/11/17 07:11:02;;;;;;;;;;;11.50;99.90;;;;;;5033749;28;19923;-84
2022/11/17 07:13:27;;;;;;;;;;;11.50;99.90;;;;;;5032681;28;19996;-84
2022/11/17 07:15:53;;;;;;;;;;;11.50;99.90;;;;;;5033033;28;19959;-84
2022/11/17 07:18:19;;;;;;;;;;;11.50;99.90;;;;;;5033199;28;19929;-85
2022/11/17 07:20:45;;;;;;;;;;;11.50;99.90;;;;;;5033180;28;20338;-84
2022/11/17 07:23:11;;;;;;;;;;;11.50;99.90;;;;;;5033816;28;20007;-85
2022/11/17 07:25:36;;;;;;;;;;;11.50;99.90;;;;;;5032826;28;19951;-84
2022/11/17 07:28:02;;;;;;;;;;;11.60;99.90;;;;;;5032830;28;19909;-84
2022/11/17 07:30:28;;;;;;;;;;;11.70;99.90;;;;;;5032922;28;20298;-84
2022/11/17 07:32:53;;;;;;;;;;;11.80;99.90;;;;;;5032564;28;19921;-84
2022/11/17 07:35:19;;;;;;;;;;;11.70;99.90;;;;;;5032856;28;19913;-85
2022/11/17 07:37:44;;;;;;;;;;;11.80;99.90;;;;;;5032614;28;19909;-84
2022/11/17 07:40:10;;;;;;;;;;;11.70;99.90;;;;;;5032779;28;19915;-85
2022/11/17 07:42:35;;;;;;;;;;;11.70;99.90;;;;;;5032678;28;19959;-85
2022/11/17 07:45:01;;;;;;;;;;;11.70;99.90;;;;;;5032160;28;19913;-84
2022/11/17 07:47:26;;;;;;;;;;;11.70;99.90;;;;;;5032628;28;19909;-85
2022/11/17 07:49:52;;;;;;;;;;;11.70;99.90;;;;;;5032576;28;20004;-84
2022/11/17 07:52:17;;;;;;;;;;;11.70;99.90;;;;;;5032459;28;19916;-85
2022/11/17 07:54:43;;;;;;;;;;;11.70;99.90;;;;;;5033352;28;19913;-84
2022/11/17 07:57:08;;;;;;;;;;;11.70;99.90;;;;;;5032923;28;20330;-84
2022/11/17 07:59:34;;;;;;;;;;;11.70;99.90;;;;;;5032354;28;19960;-85
2022/11/17 08:01:59;;;;;;;;;;;11.70;99.90;;;;;;5032679;28;20008;-84
2022/11/17 08:04:25;;;;;;;;;;;11.70;99.90;;;;;;5032935;28;19921;-84
2022/11/17 08:06:50;;;;;;;;;;;11.70;99.90;;;;;;5032276;28;20433;-83
2022/11/17 08:09:16;;;;;;;;;;;11.80;99.90;;;;;;5033330;28;19909;-85
2022/11/17 08:11:41;;;;;;;;;;;11.80;99.90;;;;;;5034316;28;20390;-84
2022/11/17 08:14:07;;;;;;;;;;;11.90;99.90;;;;;;5032255;28;19964;-84
2022/11/17 08:16:32;;;;;;;;;;;11.90;99.90;;;;;;5032473;28;19909;-85
2022/11/17 08:18:58;;;;;;;;;;;12.00;99.90;;;;;;5031686;28;20018;-84
2022/11/17 08:21:23;;;;;;;;;;;12.00;99.90;;;;;;5031366;28;19909;-84
2022/11/17 08:23:50;;;;;;;;;;;12.00;99.90;;;;;;5032378;28;19917;-84
2022/11/17 08:26:16;;;;;;;;;;;12.00;99.90;;;;;;5031287;28;19979;-84
2022/11/17 08:28:41;;;;;;;;;;;12.10;99.90;;;;;;5031346;28;20354;-83
2022/11/17 08:31:07;;;;;;;;;;;12.10;99.90;;;;;;5031348;28;19909;-83
2022/11/17 08:33:33;;;;;;;;;;;12.20;99.90;;;;;;5031143;28;19913;-82
2022/11/17 08:35:59;;;;;;;;;;;12.20;99.90;;;;;;5036359;28;19909;-84
2022/11/17 08:38:28;;;;;;;;;;;12.30;99.90;;;;;;5035209;28;19916;-82
2022/11/17 08:40:54;;;;;;;;;;;12.30;99.90;;;;;;5035265;28;20275;-83
2022/11/17 08:43:20;;;;;;;;;;;12.30;99.90;;;;;;5034610;28;19959;-83
2022/11/17 08:45:45;;;;;;;;;;;12.30;99.90;;;;;;5035070;28;20019;-83
2022/11/17 08:48:10;;;;;;;;;;;12.30;99.90;;;;;;5036250;28;19909;-83
2022/11/17 08:50:36;;;;;;;;;;;12.40;99.90;;;;;;5036401;28;20517;-83
2022/11/17 08:53:01;;;;;;;;;;;12.40;99.90;;;;;;5036158;28;19917;-82
2022/11/17 08:55:27;;;;;;;;;;;12.50;99.90;;;;;;5034936;28;19910;-82
2022/11/17 08:57:52;;;;;;;;;;;12.60;99.90;;;;;;5034777;28;19909;-84
2022/11/17 09:00:19;;;;;;;;;;;12.60;99.90;;;;;;5031175;28;19909;-84
2022/11/17 09:02:45;;;;;;;;;;;12.80;99.90;;;;;;5034308;28;20310;-84
2022/11/17 09:05:10;;;;;;;;;;;12.90;99.90;;;;;;5033815;28;19917;-84
2022/11/17 09:07:35;;;;;;;;;;;13.00;99.90;;;;;;5034363;28;19949;-83
2022/11/17 09:10:03;;;;;;;;;;;13.30;99.90;;;;;;5034723;28;19955;-85
2022/11/17 09:12:29;;;;;;;;;;;13.50;99.90;;;;;;5047716;28;19952;-86
2022/11/17 09:14:54;;;;;;;;;;;13.70;99.90;;;;;;5054313;28;19948;-86
2022/11/17 09:17:19;;;;;;;;;;;13.80;99.90;;;;;;5055566;28;19909;-86
2022/11/17 09:19:45;;;;;;;;;;;13.80;99.90;;;;;;5054430;28;20303;-84
2022/11/17 09:22:11;;;;;;;;;;;13.90;99.90;;;;;;5054054;28;20005;-84
2022/11/17 09:24:37;;;;;;;;;;;13.60;99.90;;;;;;5053688;28;20033;-84
2022/11/17 09:27:02;;;;;;;;;;;13.50;99.90;;;;;;5053910;28;19909;-83
2022/11/17 09:29:28;;;;;;;;;;;13.40;99.90;;;;;;5054265;28;20278;-83
2022/11/17 09:31:54;;;;;;;;;;;13.20;99.90;;;;;;5055737;28;19963;-86
2022/11/17 09:34:19;;;;;;;;;;;13.10;99.90;;;;;;5056080;28;20002;-84
2022/11/17 09:36:47;;;;;;;;;;;13.20;99.90;;;;;;5054562;28;19916;-85
2022/11/17 09:39:13;;;;;;;;;;;13.20;99.90;;;;;;5054382;28;19915;-85
2022/11/17 09:41:46;;;;;;;;;;;13.40;99.90;;;;;;5055467;28;19917;-85
2022/11/17 09:44:12;;;;;;;;;;;13.70;99.90;;;;;;5054133;28;19919;-84
2022/11/17 09:46:46;;;;;;;;;;;13.90;99.90;;;;;;5052902;28;20335;-85
2022/11/17 09:49:12;;;;;;;;;;;14.20;99.90;;;;;;5052585;28;19909;-84
2022/11/17 09:51:40;;;;;;;;;;;14.30;99.90;;;;;;5053746;28;19912;-84
2022/11/17 09:59:11;;;;;;;;;;;14.40;99.90;;;;;;5033806;28;19929;-83
2022/11/17 10:01:37;;;;;;;;;;;14.40;99.90;;;;;;5033503;28;19955;-81
2022/11/17 10:04:07;;;;;;;;;;;14.40;99.90;;;;;;5033652;28;19921;-82
2022/11/17 10:06:33;;;;;;;;;;;14.20;99.90;;;;;;5033760;28;19917;-82
2022/11/17 10:09:11;;;;;;;;;;;14.20;99.90;;;;;;5033689;28;20075;-82
2022/11/17 10:11:40;;;;;;;;;;;14.00;99.90;;;;;;5033186;28;19909;-81
2022/11/17 10:14:14;;;;;;;;;;;14.00;99.90;;;;;;5034433;28;19920;-83
2022/11/17 10:16:56;;;;;;;;;;;14.00;99.90;;;;;;5034694;28;19909;-82
2022/11/17 10:19:23;;;;;;;;;;;14.00;99.90;;;;;;5034627;28;19909;-83
2022/11/17 10:21:50;;;;;;;;;;;14.10;99.90;;;;;;5034917;28;19909;-82
2022/11/17 10:24:35;;;;;;;;;;;13.90;99.90;;;;;;5034249;28;19917;-82
2022/11/17 10:27:01;;;;;;;;;;;13.90;99.90;;;;;;5034480;28;19909;-81
2022/11/17 10:29:27;;;;;;;;;;;13.80;99.90;;;;;;5034420;28;20455;-81
2022/11/17 10:31:52;;;;;;;;;;;13.70;99.90;;;;;;5033343;28;19960;-82
2022/11/17 10:34:38;;;;;;;;;;;13.70;99.90;;;;;;5034580;28;20329;-84
2022/11/17 10:37:20;;;;;;;;;;;13.80;99.90;;;;;;5025834;28;19913;-81
2022/11/17 10:39:45;;;;;;;;;;;13.70;99.90;;;;;;5037618;28;19937;-82
2022/11/17 10:42:31;;;;;;;;;;;13.80;99.90;;;;;;5033745;28;19909;-84
2022/11/17 10:44:58;;;;;;;;;;;13.70;99.90;;;;;;5034784;28;20006;-82
2022/11/17 10:47:25;;;;;;;;;;;13.70;99.90;;;;;;5034762;28;20020;-83
2022/11/17 10:50:04;;;;;;;;;;;13.70;99.90;;;;;;5015186;28;19916;-82
2022/11/17 10:52:29;;;;;;;;;;;13.70;99.90;;;;;;5013102;28;19910;-83
2022/11/17 10:55:14;;;;;;;;;;;13.70;99.90;;;;;;5046594;28;20000;-83
2022/11/17 10:57:42;;;;;;;;;;;13.70;99.90;;;;;;5014109;28;19918;-82
2022/11/17 11:00:20;;;;;;;;;;;13.60;99.90;;;;;;5012872;28;19917;-83
2022/11/17 11:02:46;;;;;;;;;;;13.60;99.90;;;;;;5012774;28;19910;-83
2022/11/17 11:05:13;;;;;;;;;;;13.70;99.90;;;;;;5045156;28;20426;-83
2022/11/17 11:07:39;;;;;;;;;;;13.80;99.90;;;;;;5012614;28;19909;-83
2022/11/17 11:10:18;;;;;;;;;;;13.80;99.90;;;;;;5012643;28;20379;-82
2022/11/17 11:12:58;;;;;;;;;;;13.90;99.90;;;;;;5012868;28;20359;-83
2022/11/17 11:15:27;;;;;;;;;;;14.10;99.90;;;;;;5011755;28;19913;-82
2022/11/17 11:17:52;;;;;;;;;;;14.20;99.90;;;;;;5013690;28;20366;-81
2022/11/17 11:20:23;;;;;;;;;;;14.20;99.90;;;;;;5045424;28;19917;-81
2022/11/17 11:23:05;;;;;;;;;;;14.10;99.90;;;;;;5012164;28;19916;-83
2022/11/17 11:25:36;;;;;;;;;;;14.00;99.90;;;;;;5013520;28;20458;-83
2022/11/17 11:28:17;;;;;;;;;;;14.00;99.90;;;;;;5012161;28;19975;-82
2022/11/17 11:31:01;;;;;;;;;;;14.20;99.90;;;;;;5013403;28;19910;-83
2022/11/17 11:33:36;;;;;;;;;;;14.20;99.90;;;;;;5045030;28;20367;-82
2022/11/17 11:36:05;;;;;;;;;;;14.10;99.90;;;;;;5014345;28;20282;-82
2022/11/17 11:38:33;;;;;;;;;;;14.30;99.90;;;;;;5033113;28;19932;-82
2022/11/17 11:41:02;;;;;;;;;;;14.30;99.90;;;;;;5065940;28;19909;-82
2022/11/17 11:43:36;;;;;;;;;;;14.30;99.90;;;;;;5065047;28;19913;-82
2022/11/17 11:46:07;;;;;;;;;;;14.30;99.90;;;;;;5031950;28;19956;-83
2022/11/17 11:48:34;;;;;;;;;;;14.20;99.90;;;;;;5033711;28;20329;-82
2022/11/17 11:50:59;;;;;;;;;;;14.20;99.90;;;;;;5032751;28;20016;-82
2022/11/17 11:53:57;;;;;;;;;;;14.30;99.90;;;;;;5033434;28;19947;-84
2022/11/17 11:56:33;;;;;;;;;;;14.30;99.90;;;;;;5009599;28;19916;-83
2022/11/17 11:59:06;;;;;;;;;;;14.70;99.90;;;;;;5032159;28;19924;-83
2022/11/17 12:01:54;;;;;;;;;;;14.80;99.90;;;;;;5032891;28;19947;-82
2022/11/17 12:06:52;;;;;;;;;;;17.50;99.90;;;;;;5031292;28;19925;-82
2022/11/17 12:09:20;;;;;;;;;;;19.80;99.90;;;;;;5032528;28;19992;-84
2022/11/17 12:11:59;;;;;;;;;;;19.30;99.90;;;;;;5048677;28;20382;-83
2022/11/17 12:14:25;;;;;;;;;;;17.80;99.90;;;;;;5032335;28;19944;-82
2022/11/17 12:16:58;;;;;;;;;;;16.90;99.90;;;;;;5031187;28;19956;-82
2022/11/17 12:19:42;;;;;;;;;;;16.50;99.90;;;;;;5031339;28;20389;-81
2022/11/17 12:22:08;;;;;;;;;;;16.00;99.90;;;;;;5037929;28;19909;-81
2022/11/17 12:24:39;;;;;;;;;;;15.90;99.90;;;;;;5040744;28;19918;-81
2022/11/17 12:27:23;;;;;;;;;;;15.70;99.90;;;;;;5035240;28;19968;-80
2022/11/17 12:29:48;;;;;;;;;;;15.30;99.90;;;;;;5031539;28;19909;-81
2022/11/17 12:32:32;;;;;;;;;;;15.20;99.90;;;;;;5033494;28;19909;-80
2022/11/17 12:35:17;;;;;;;;;;;15.00;99.90;;;;;;5033070;28;19910;-80
2022/11/17 12:37:42;;;;;;;;;;;15.00;99.90;;;;;;5032246;28;19909;-80
2022/11/17 12:40:27;;;;;;;;;;;15.00;99.90;;;;;;5033191;28;19960;-81
2022/11/17 12:43:12;;;;;;;;;;;14.90;99.90;;;;;;5031678;28;20259;-80
2022/11/17 12:45:52;;;;;;;;;;;14.90;99.90;;;;;;5032824;28;19909;-80
2022/11/17 12:48:25;;;;;;;;;;;14.90;99.90;;;;;;5031098;28;19952;-80
2022/11/17 12:51:04;;;;;;;;;;;14.90;99.90;;;;;;5032602;28;19909;-79
2022/11/17 12:53:33;;;;;;;;;;;14.80;99.90;;;;;;5032331;28;20327;-80
2022/11/17 12:56:11;;;;;;;;;;;14.60;99.90;;;;;;5032474;28;19909;-80
2022/11/17 12:58:39;;;;;;;;;;;14.60;99.90;;;;;;5032463;28;19909;-79
2022/11/17 13:01:10;;;;;;;;;;;14.50;99.90;;;;;;5032658;28;19949;-80
2022/11/17 13:03:41;;;;;;;;;;;14.50;99.90;;;;;;5033348;28;19928;-80
2022/11/17 13:06:11;;;;;;;;;;;14.50;99.90;;;;;;5033022;28;19917;-79
2022/11/17 13:08:37;;;;;;;;;;;14.50;99.90;;;;;;5032347;28;19909;-80
2022/11/17 13:11:13;;;;;;;;;;;14.60;99.90;;;;;;5032328;28;20000;-81
2022/11/17 13:13:39;;;;;;;;;;;14.60;99.90;;;;;;5031122;28;20461;-83
2022/11/17 13:16:04;;;;;;;;;;;14.60;99.90;;;;;;5034758;28;19984;-80
2022/11/17 13:18:33;;;;;;;;;;;14.70;99.90;;;;;;5044002;28;19949;-81
2022/11/17 13:20:59;;;;;;;;;;;14.70;99.90;;;;;;5046342;28;20437;-80
2022/11/17 13:23:26;;;;;;;;;;;14.70;99.90;;;;;;5046921;28;19919;-81
2022/11/17 13:26:08;;;;;;;;;;;14.90;99.90;;;;;;5046905;28;19916;-81
2022/11/17 13:28:33;;;;;;;;;;;14.90;99.90;;;;;;5035729;28;19909;-82
2022/11/17 13:30:59;;;;;;;;;;;15.00;99.90;;;;;;5035694;28;20268;-81
2022/11/17 13:33:25;;;;;;;;;;;15.00;99.90;;;;;;5034174;28;19909;-82
2022/11/17 13:36:04;;;;;;;;;;;15.10;99.90;;;;;;5035637;28;20012;-82
2022/11/17 13:38:29;;;;;;;;;;;15.20;99.90;;;;;;5035577;28;19917;-81
2022/11/17 13:40:55;;;;;;;;;;;15.20;99.90;;;;;;5035461;28;19909;-83
2022/11/17 13:43:22;;;;;;;;;;;15.20;99.90;;;;;;5050468;28;19963;-84
2022/11/17 13:45:51;;;;;;;;;;;15.20;99.90;;;;;;5050573;28;20458;-84
2022/11/17 13:48:33;;;;;;;;;;;15.20;99.90;;;;;;5034599;28;19972;-83
2022/11/17 13:51:17;;;;;;;;;;;15.10;99.90;;;;;;5041342;28;19909;-82
2022/11/17 13:53:44;;;;;;;;;;;14.90;99.90;;;;;;5033601;28;20321;-81
2022/11/17 13:56:29;;;;;;;;;;;14.90;99.90;;;;;;5033768;28;19915;-81
2022/11/17 13:58:55;;;;;;;;;;;14.80;99.90;;;;;;5035205;28;19910;-81
2022/11/17 14:01:22;;;;;;;;;;;14.70;99.90;;;;;;5035000;28;19909;-81
2022/11/17 14:03:48;;;;;;;;;;;14.70;99.90;;;;;;5034788;28;19917;-82
2022/11/17 14:06:14;;;;;;;;;;;14.60;99.90;;;;;;5035009;28;19917;-82
2022/11/17 14:08:41;;;;;;;;;;;14.40;99.90;;;;;;5031979;28;19913;-81
2022/11/17 14:11:13;;;;;;;;;;;14.40;99.90;;;;;;5034507;28;19910;-81
2022/11/17 14:13:46;;;;;;;;;;;14.30;99.90;;;;;;5034422;28;19910;-81
2022/11/17 14:16:18;;;;;;;;;;;14.30;99.90;;;;;;5033077;28;19916;-81
2022/11/17 14:18:53;;;;;;;;;;;14.30;99.90;;;;;;5033143;28;19909;-81
2022/11/17 14:21:18;;;;;;;;;;;14.40;99.90;;;;;;5049075;28;19909;-81
2022/11/17 14:23:44;;;;;;;;;;;14.40;99.90;;;;;;5052918;28;20263;-80
2022/11/17 14:26:15;;;;;;;;;;;14.50;99.90;;;;;;5054178;28;20009;-81
2022/11/17 14:28:41;;;;;;;;;;;14.50;99.90;;;;;;5052903;28;19916;-81
2022/11/17 14:31:10;;;;;;;;;;;14.50;99.90;;;;;;5053841;28;19920;-81
2022/11/17 14:33:35;;;;;;;;;;;14.60;99.90;;;;;;5052015;28;19908;-81
2022/11/17 14:36:01;;;;;;;;;;;14.60;99.90;;;;;;5040851;28;19909;-79
2022/11/17 14:38:26;;;;;;;;;;;14.60;99.90;;;;;;5034507;28;19909;-82
2022/11/17 14:40:52;;;;;;;;;;;14.60;99.90;;;;;;5034002;28;20004;-82
2022/11/17 14:43:18;;;;;;;;;;;14.60;99.90;;;;;;5032731;28;19924;-83
2022/11/17 14:45:44;;;;;;;;;;;14.60;99.90;;;;;;5032393;28;19970;-82
2022/11/17 14:48:09;;;;;;;;;;;14.60;99.90;;;;;;5032831;28;19913;-82
2022/11/17 14:50:35;;;;;;;;;;;14.60;99.90;;;;;;5032701;28;19909;-80
2022/11/17 14:53:02;;;;;;;;;;;14.70;99.90;;;;;;5033046;28;20287;-81
2022/11/17 14:55:28;;;;;;;;;;;14.70;99.90;;;;;;5033917;28;19952;-81
2022/11/17 14:57:53;;;;;;;;;;;14.80;99.90;;;;;;5032756;28;19909;-82
2022/11/17 15:00:19;;;;;;;;;;;14.80;99.90;;;;;;5033079;28;20007;-81